createdAt,value
2018-01-26T00:01:12.935Z,11.90
2018-01-26T00:03:39.385Z,8.90
2018-01-26T00:06:06.587Z,14.10
2018-01-26T00:08:32.931Z,10.90
2018-01-26T00:10:59.284Z,13.77
2018-01-26T00:13:25.590Z,9.73
2018-01-26T00:15:51.978Z,15.63
2018-01-26T00:18:18.330Z,16.43
2018-01-26T00:20:45.383Z,14.60
2018-01-26T00:23:11.662Z,10.47
2018-01-26T00:25:38.868Z,12.77
2018-01-26T00:28:05.302Z,10.53
2018-01-26T00:30:31.615Z,9.30
2018-01-26T00:32:57.978Z,9.40
2018-01-26T00:35:24.687Z,10.90
2018-01-26T00:37:51.033Z,9.40
2018-01-26T00:40:17.310Z,11.17
2018-01-26T00:42:44.407Z,9.00
2018-01-26T00:45:10.719Z,7.17
2018-01-26T00:47:36.977Z,9.43
2018-01-26T00:50:04.034Z,11.37
2018-01-26T00:52:30.299Z,9.03
2018-01-26T00:54:56.655Z,11.57
2018-01-26T00:57:22.962Z,9.27
2018-01-26T00:59:49.977Z,10.07
2018-01-26T01:02:16.293Z,8.90
2018-01-26T01:04:43.452Z,9.17
2018-01-26T01:07:09.796Z,11.53
2018-01-26T01:09:36.086Z,13.00
2018-01-26T01:12:02.373Z,9.57
2018-01-26T01:14:28.676Z,10.63
2018-01-26T01:16:54.979Z,13.27
2018-01-26T01:19:21.262Z,8.43
2018-01-26T01:21:47.704Z,10.20
2018-01-26T01:24:13.994Z,9.97
2018-01-26T01:26:40.313Z,10.03
2018-01-26T01:29:06.571Z,8.70
2018-01-26T01:31:32.922Z,10.60
2018-01-26T01:33:59.233Z,9.20
2018-01-26T01:36:25.533Z,11.63
2018-01-26T01:38:51.945Z,9.80
2018-01-26T01:41:18.311Z,12.33
2018-01-26T01:43:44.739Z,9.97
2018-01-26T01:46:11.022Z,9.10
2018-01-26T01:48:38.163Z,7.77
2018-01-26T01:51:04.648Z,12.07
2018-01-26T01:53:33.227Z,9.20
2018-01-26T01:56:01.437Z,9.63
2018-01-26T01:58:27.774Z,17.70
2018-01-26T02:00:54.160Z,18.00
2018-01-26T02:03:20.489Z,26.00
2018-01-26T02:05:46.741Z,20.60
2018-01-26T02:08:13.010Z,79.37
2018-01-26T02:10:39.379Z,76.80
2018-01-26T02:13:05.641Z,50.90
2018-01-26T02:15:31.927Z,23.70
2018-01-26T02:17:58.962Z,29.20
2018-01-26T02:20:25.282Z,27.70
2018-01-26T02:22:51.570Z,19.67
2018-01-26T02:25:17.834Z,17.93
2018-01-26T02:27:44.125Z,25.67
2018-01-26T02:30:11.131Z,23.67
2018-01-26T02:32:38.195Z,18.00
2018-01-26T02:35:04.570Z,16.27
2018-01-26T02:37:30.862Z,11.80
2018-01-26T02:39:57.142Z,12.60
2018-01-26T02:42:23.462Z,10.60
2018-01-26T02:44:49.718Z,11.50
2018-01-26T02:47:15.982Z,9.93
2018-01-26T02:49:43.013Z,9.80
2018-01-26T02:52:09.267Z,8.37
2018-01-26T02:54:35.524Z,10.63
2018-01-26T02:57:02.587Z,8.57
2018-01-26T02:59:28.857Z,9.17
2018-01-26T03:01:55.170Z,9.43
2018-01-26T03:04:21.511Z,7.47
2018-01-26T03:06:48.515Z,10.40
2018-01-26T03:09:14.787Z,7.07
2018-01-26T03:11:41.038Z,8.17
2018-01-26T03:14:07.340Z,6.40
2018-01-26T03:16:33.634Z,6.50
2018-01-26T03:18:59.916Z,4.80
2018-01-26T03:21:26.223Z,6.10
2018-01-26T03:23:52.597Z,5.40
2018-01-26T03:26:18.893Z,4.27
2018-01-26T03:28:45.187Z,4.83
2018-01-26T03:31:12.171Z,5.27
2018-01-26T03:33:38.462Z,4.43
2018-01-26T03:36:04.770Z,5.43
2018-01-26T03:38:31.066Z,3.23
2018-01-26T03:40:58.075Z,5.00
2018-01-26T03:43:24.342Z,2.43
2018-01-26T03:45:50.626Z,3.07
2018-01-26T03:48:16.890Z,3.40
2018-01-26T03:50:43.190Z,2.20
2018-01-26T03:53:13.408Z,2.47
2018-01-26T03:55:39.699Z,2.80
2018-01-26T03:58:05.973Z,2.23
2018-01-26T04:00:32.254Z,4.13
2018-01-26T04:02:58.549Z,2.40
2018-01-26T04:05:24.819Z,2.10
2018-01-26T04:07:51.077Z,2.70
2018-01-26T04:10:17.349Z,1.83
2018-01-26T04:12:43.620Z,1.83
2018-01-26T04:15:09.945Z,2.63
2018-01-26T04:17:36.193Z,2.03
2018-01-26T04:20:02.507Z,1.80
2018-01-26T04:22:28.794Z,1.80
2018-01-26T04:24:55.088Z,1.83
2018-01-26T04:27:21.375Z,1.93
2018-01-26T04:29:48.414Z,1.47
2018-01-26T04:32:15.425Z,2.27
2018-01-26T04:34:41.698Z,3.03
2018-01-26T04:37:08.174Z,1.63
2018-01-26T04:39:35.182Z,1.00
2018-01-26T04:42:02.390Z,1.90
2018-01-26T04:44:28.653Z,0.90
2018-01-26T04:46:55.694Z,1.40
2018-01-26T04:49:22.704Z,1.00
2018-01-26T04:51:48.995Z,0.97
2018-01-26T04:54:15.274Z,0.87
2018-01-26T04:56:41.524Z,0.50
2018-01-26T04:59:07.802Z,2.00
2018-01-26T05:01:34.098Z,0.70
2018-01-26T05:04:01.450Z,1.60
2018-01-26T05:06:27.723Z,1.27
2018-01-26T05:08:53.980Z,1.60
2018-01-26T05:11:20.278Z,0.90
2018-01-26T05:13:46.539Z,2.30
2018-01-26T05:16:12.880Z,0.63
2018-01-26T05:18:39.917Z,0.93
2018-01-26T05:21:06.179Z,1.50
2018-01-26T05:23:32.491Z,1.90
2018-01-26T05:25:59.642Z,2.67
2018-01-26T05:28:25.934Z,1.40
2018-01-26T05:30:52.213Z,0.70
2018-01-26T05:33:18.481Z,1.17
2018-01-26T05:35:44.793Z,1.63
2018-01-26T05:38:11.083Z,0.73
2018-01-26T05:40:38.099Z,1.20
2018-01-26T05:43:04.376Z,0.90
2018-01-26T05:45:30.721Z,1.97
2018-01-26T05:47:56.995Z,2.40
2018-01-26T05:50:23.254Z,1.13
2018-01-26T05:52:49.568Z,0.43
2018-01-26T05:55:15.837Z,2.70
2018-01-26T05:57:42.100Z,0.80
2018-01-26T06:00:08.411Z,2.50
2018-01-26T06:02:34.674Z,1.10
2018-01-26T06:05:01.054Z,1.17
2018-01-26T06:07:27.328Z,1.20
2018-01-26T06:09:53.593Z,1.67
2018-01-26T06:12:19.861Z,1.13
2018-01-26T06:14:46.122Z,1.80
2018-01-26T06:17:13.183Z,2.97
2018-01-26T06:19:39.425Z,3.53
2018-01-26T06:22:05.720Z,2.37
2018-01-26T06:24:32.026Z,2.00
2018-01-26T06:26:58.347Z,2.60
2018-01-26T06:29:24.666Z,3.30
2018-01-26T06:31:50.937Z,2.23
2018-01-26T06:34:17.258Z,1.80
2018-01-26T06:36:43.541Z,1.83
2018-01-26T06:39:09.848Z,4.90
2018-01-26T06:41:36.204Z,2.47
2018-01-26T06:44:02.507Z,1.37
2018-01-26T06:46:28.799Z,1.70
2018-01-26T06:48:55.112Z,4.60
2018-01-26T06:51:21.384Z,1.90
2018-01-26T06:53:47.658Z,2.50
2018-01-26T06:56:13.962Z,1.40
2018-01-26T06:58:40.231Z,1.10
2018-01-26T07:01:06.514Z,4.43
2018-01-26T07:03:32.802Z,2.60
2018-01-26T07:05:59.065Z,2.30
2018-01-26T07:08:26.076Z,3.67
2018-01-26T07:10:53.123Z,1.77
2018-01-26T07:13:19.407Z,1.70
2018-01-26T07:15:45.796Z,2.53
2018-01-26T07:18:12.061Z,2.60
2018-01-26T07:20:49.169Z,3.67
2018-01-26T07:23:15.472Z,2.17
2018-01-26T07:25:42.480Z,2.90
2018-01-26T07:28:08.757Z,2.87
2018-01-26T07:30:35.616Z,3.17
2018-01-26T07:33:02.320Z,2.77
2018-01-26T07:35:28.621Z,4.10
2018-01-26T07:37:55.733Z,2.70
2018-01-26T07:40:22.080Z,3.43
2018-01-26T07:42:48.342Z,3.57
2018-01-26T07:45:15.358Z,3.43
2018-01-26T07:47:41.650Z,3.37
2018-01-26T07:50:07.970Z,3.80
2018-01-26T07:52:34.287Z,3.50
2018-01-26T07:55:00.591Z,5.23
2018-01-26T07:57:26.889Z,3.13
2018-01-26T07:59:53.151Z,3.63
2018-01-26T08:02:19.448Z,5.07
2018-01-26T08:04:45.773Z,8.93
2018-01-26T08:07:12.096Z,5.97
2018-01-26T08:09:38.450Z,5.43
2018-01-26T08:12:04.763Z,5.10
2018-01-26T08:14:31.022Z,6.63
2018-01-26T08:16:57.592Z,6.00
2018-01-26T08:19:24.341Z,3.40
2018-01-26T08:21:51.915Z,4.13
2018-01-26T08:24:19.569Z,4.57
2018-01-26T08:26:45.960Z,3.87
2018-01-26T08:29:12.256Z,6.70
2018-01-26T08:31:38.644Z,3.50
2018-01-26T08:34:05.867Z,4.07
2018-01-26T08:36:33.826Z,3.77
2018-01-26T08:39:00.103Z,2.80
2018-01-26T08:44:03.586Z,4.30
2018-01-26T08:46:29.884Z,3.57
2018-01-26T08:48:56.163Z,3.57
2018-01-26T08:51:23.101Z,3.27
2018-01-26T08:53:49.413Z,3.53
2018-01-26T08:56:16.458Z,2.90
2018-01-26T08:58:43.596Z,2.57
2018-01-26T09:01:10.664Z,3.20
2018-01-26T09:03:36.919Z,4.90
2018-01-26T09:06:03.210Z,3.17
2018-01-26T09:08:29.502Z,3.07
2018-01-26T09:10:55.786Z,3.10
2018-01-26T09:13:22.818Z,3.70
2018-01-26T09:15:49.834Z,3.73
2018-01-26T09:18:16.407Z,3.43
2018-01-26T09:20:42.666Z,6.20
2018-01-26T09:23:08.968Z,2.93
2018-01-26T09:25:35.236Z,3.50
2018-01-26T09:28:01.529Z,4.73
2018-01-26T09:30:27.808Z,2.80
2018-01-26T09:32:54.108Z,3.93
2018-01-26T09:35:20.572Z,3.37
2018-01-26T09:37:47.684Z,4.83
2018-01-26T09:40:14.338Z,3.50
2018-01-26T09:42:40.722Z,3.60
2018-01-26T09:45:07.123Z,3.30
2018-01-26T09:47:33.458Z,5.13
2018-01-26T09:49:59.730Z,5.60
2018-01-26T09:52:26.073Z,5.10
2018-01-26T09:54:52.711Z,2.73
2018-01-26T09:57:19.077Z,7.60
2018-01-26T09:59:45.382Z,5.17
2018-01-26T10:02:15.236Z,3.83
2018-01-26T10:04:41.615Z,4.40
2018-01-26T10:07:08.027Z,9.30
2018-01-26T10:09:34.302Z,5.20
2018-01-26T10:12:00.607Z,4.57
2018-01-26T10:14:26.898Z,3.67
2018-01-26T10:16:53.183Z,4.60
2018-01-26T10:19:19.505Z,5.07
2018-01-26T10:21:45.874Z,6.70
2018-01-26T10:24:12.373Z,5.43
2018-01-26T10:26:38.662Z,7.27
2018-01-26T10:29:05.602Z,7.83
2018-01-26T10:31:31.945Z,4.97
2018-01-26T10:33:58.210Z,5.17
2018-01-26T10:36:25.262Z,5.27
2018-01-26T10:38:51.684Z,9.27
2018-01-26T10:41:18.628Z,8.00
2018-01-26T10:43:45.776Z,7.43
2018-01-26T10:46:12.924Z,6.60
2018-01-26T10:48:40.245Z,4.90
2018-01-26T10:51:06.970Z,5.00
2018-01-26T10:53:33.319Z,5.83
2018-01-26T10:55:59.797Z,5.07
2018-01-26T10:58:26.500Z,5.47
2018-01-26T11:00:53.182Z,5.27
2018-01-26T11:03:19.802Z,5.83
2018-01-26T11:05:46.501Z,6.80
2018-01-26T11:08:12.851Z,7.40
2018-01-26T11:10:39.206Z,4.77
2018-01-26T11:13:05.485Z,5.07
2018-01-26T11:15:32.107Z,5.10
2018-01-26T11:17:59.392Z,4.00
2018-01-26T11:20:26.059Z,2.80
2018-01-26T11:22:52.369Z,3.67
2018-01-26T11:25:19.168Z,3.20
2018-01-26T11:27:46.501Z,4.57
2018-01-26T11:30:13.037Z,3.47
2018-01-26T11:32:40.009Z,4.47
2018-01-26T11:35:06.706Z,4.23
2018-01-26T11:37:33.387Z,7.80
2018-01-26T11:40:00.224Z,2.57
2018-01-26T11:42:27.055Z,2.93
2018-01-26T11:44:53.379Z,2.60
2018-01-26T11:47:20.405Z,3.33
2018-01-26T11:49:46.697Z,6.80
2018-01-26T11:52:12.958Z,5.70
2018-01-26T11:54:39.278Z,3.67
2018-01-26T11:57:05.622Z,5.57
2018-01-26T11:59:31.883Z,2.17
2018-01-26T12:01:58.153Z,2.90
2018-01-26T12:04:24.451Z,5.33
2018-01-26T12:06:50.710Z,2.97
2018-01-26T12:09:16.962Z,4.83
2018-01-26T12:11:43.245Z,4.20
2018-01-26T12:14:09.537Z,6.27
2018-01-26T12:16:36.580Z,2.77
2018-01-26T12:19:02.903Z,4.63
2018-01-26T12:21:29.929Z,3.07
2018-01-26T12:23:56.991Z,3.20
2018-01-26T12:26:23.267Z,7.00
2018-01-26T12:28:50.326Z,4.67
2018-01-26T12:31:16.630Z,3.50
2018-01-26T12:33:43.635Z,3.73
2018-01-26T12:36:10.036Z,3.77
2018-01-26T12:38:36.314Z,4.73
2018-01-26T12:41:02.605Z,3.20
2018-01-26T12:43:29.975Z,5.90
2018-01-26T12:45:56.271Z,7.17
2018-01-26T12:48:24.767Z,5.83
2018-01-26T12:50:51.206Z,3.50
2018-01-26T12:53:17.701Z,6.80
2018-01-26T12:55:43.971Z,5.50
2018-01-26T12:58:10.965Z,5.07
2018-01-26T13:00:37.276Z,2.57
2018-01-26T13:03:03.900Z,3.43
2018-01-26T13:05:30.223Z,3.50
2018-01-26T13:07:56.505Z,6.40
2018-01-26T13:10:22.806Z,4.97
2018-01-26T13:12:49.636Z,3.33
2018-01-26T13:15:15.910Z,5.70
2018-01-26T13:17:42.243Z,5.33
2018-01-26T13:20:08.560Z,7.73
2018-01-26T13:22:34.852Z,7.67
2018-01-26T13:25:01.167Z,3.60
2018-01-26T13:27:27.428Z,3.93
2018-01-26T13:29:53.706Z,6.00
2018-01-26T13:32:19.976Z,6.73
2018-01-26T13:34:46.238Z,6.53
2018-01-26T13:37:12.530Z,6.10
2018-01-26T13:39:38.838Z,7.63
2018-01-26T13:42:05.118Z,6.70
2018-01-26T13:44:32.144Z,6.17
2018-01-26T13:46:58.765Z,9.07
2018-01-26T13:49:25.092Z,10.97
2018-01-26T13:51:51.361Z,5.53
2018-01-26T13:54:17.738Z,7.00
2018-01-26T13:56:44.011Z,6.90
2018-01-26T13:59:10.330Z,5.60
2018-01-26T14:01:36.639Z,7.23
2018-01-26T14:04:02.922Z,5.27
2018-01-26T14:06:29.221Z,4.77
2018-01-26T14:08:55.475Z,6.93
2018-01-26T14:11:21.787Z,3.50
2018-01-26T14:13:48.190Z,6.10
2018-01-26T14:16:14.594Z,4.63
2018-01-26T14:18:41.241Z,7.07
2018-01-26T14:21:07.783Z,3.33
2018-01-26T14:23:34.786Z,5.07
2018-01-26T14:26:01.079Z,2.77
2018-01-26T14:28:27.337Z,5.60
2018-01-26T14:30:53.623Z,9.87
2018-01-26T14:33:19.906Z,7.23
2018-01-26T14:35:46.172Z,4.33
2018-01-26T14:38:12.466Z,7.17
2018-01-26T14:40:38.755Z,5.10
2018-01-26T14:43:05.095Z,7.17
2018-01-26T14:45:31.390Z,6.97
2018-01-26T14:47:57.653Z,7.43
2018-01-26T14:50:23.954Z,7.07
2018-01-26T14:52:50.242Z,13.57
2018-01-26T14:55:16.517Z,4.30
2018-01-26T14:57:42.797Z,8.03
2018-01-26T15:00:09.100Z,5.27
2018-01-26T15:02:35.379Z,5.53
2018-01-26T15:05:02.421Z,9.90
2018-01-26T15:07:28.814Z,6.50
2018-01-26T15:09:55.221Z,5.20
2018-01-26T15:12:21.528Z,9.47
2018-01-26T15:14:47.874Z,6.70
2018-01-26T15:17:14.875Z,5.93
2018-01-26T15:19:41.367Z,10.37
2018-01-26T15:22:07.755Z,6.90
2018-01-26T15:24:34.764Z,7.57
2018-01-26T15:27:01.044Z,3.83
2018-01-26T15:29:28.336Z,7.00
2018-01-26T15:31:55.900Z,6.40
2018-01-26T15:34:23.165Z,5.57
2018-01-26T15:36:49.542Z,9.47
2018-01-26T15:39:15.831Z,7.40
2018-01-26T15:41:42.157Z,11.77
2018-01-26T15:44:09.210Z,15.30
2018-01-26T15:46:35.483Z,26.53
2018-01-26T15:49:01.738Z,34.30
2018-01-26T15:51:28.764Z,26.93
2018-01-26T15:53:55.033Z,21.70
2018-01-26T15:56:21.394Z,18.97
2018-01-26T15:58:47.665Z,14.17
2018-01-26T16:01:13.937Z,12.60
2018-01-26T16:03:40.231Z,12.30
2018-01-26T16:06:06.490Z,17.00
2018-01-26T16:08:32.820Z,12.20
2018-01-26T16:10:59.111Z,10.23
2018-01-26T16:13:25.433Z,11.73
2018-01-26T16:15:59.569Z,9.00
2018-01-26T16:18:25.870Z,8.07
2018-01-26T16:20:52.190Z,7.13
2018-01-26T16:23:19.762Z,9.60
2018-01-26T16:25:46.258Z,11.17
2018-01-26T16:28:12.618Z,11.67
2018-01-26T16:30:39.163Z,5.87
2018-01-26T16:33:05.598Z,15.37
2018-01-26T16:35:31.969Z,7.63
2018-01-26T16:37:58.239Z,8.20
2018-01-26T16:40:24.543Z,17.20
2018-01-26T16:42:51.007Z,13.93
2018-01-26T16:45:18.064Z,16.50
2018-01-26T16:47:44.367Z,12.47
2018-01-26T16:50:11.386Z,9.30
2018-01-26T16:52:37.807Z,9.77
2018-01-26T16:55:05.218Z,13.70
2018-01-26T16:57:31.546Z,8.70
2018-01-26T16:59:57.850Z,7.67
2018-01-26T17:02:24.236Z,6.83
2018-01-26T17:04:50.864Z,7.37
2018-01-26T17:07:17.134Z,8.37
2018-01-26T17:09:44.138Z,6.50
2018-01-26T17:12:10.422Z,13.03
2018-01-26T17:14:36.679Z,9.33
2018-01-26T17:17:02.975Z,10.97
2018-01-26T17:19:29.345Z,12.63
2018-01-26T17:21:56.790Z,9.30
2018-01-26T17:24:23.320Z,9.93
2018-01-26T17:26:49.628Z,9.60
2018-01-26T17:29:15.929Z,11.13
2018-01-26T17:31:43.173Z,9.47
2018-01-26T17:34:09.431Z,12.23
2018-01-26T17:36:36.046Z,11.53
2018-01-26T17:39:02.542Z,8.10
2018-01-26T17:41:29.319Z,6.20
2018-01-26T17:43:55.768Z,14.37
2018-01-26T17:46:22.321Z,16.60
2018-01-26T17:48:48.663Z,10.83
2018-01-26T17:51:14.947Z,19.20
2018-01-26T17:53:41.438Z,17.13
2018-01-26T17:56:07.902Z,13.80
2018-01-26T17:58:34.316Z,15.60
2018-01-26T18:01:00.653Z,12.57
2018-01-26T18:03:27.041Z,13.43
2018-01-26T18:05:53.360Z,15.73
2018-01-26T18:08:19.722Z,16.03
2018-01-26T18:10:46.023Z,15.97
2018-01-26T18:13:12.337Z,17.37
2018-01-26T18:15:38.633Z,12.97
2018-01-26T18:18:05.289Z,15.70
2018-01-26T18:20:32.468Z,18.43
2018-01-26T18:22:58.771Z,19.30
2018-01-26T18:25:25.780Z,16.53
2018-01-26T18:27:52.047Z,15.33
2018-01-26T18:30:19.086Z,17.70
2018-01-26T18:32:45.462Z,23.33
2018-01-26T18:35:11.850Z,34.03
2018-01-26T18:37:38.118Z,47.53
2018-01-26T18:40:04.387Z,36.90
2018-01-26T18:42:30.685Z,35.53
2018-01-26T18:44:56.968Z,45.27
2018-01-26T18:47:23.392Z,26.37
2018-01-26T18:49:49.650Z,61.87
2018-01-26T18:52:15.914Z,39.50
2018-01-26T18:54:42.277Z,39.17
2018-01-26T18:57:08.638Z,35.43
2018-01-26T18:59:35.016Z,27.70
2018-01-26T19:02:01.276Z,22.43
2018-01-26T19:04:27.538Z,20.67
2018-01-26T19:06:53.867Z,17.73
2018-01-26T19:09:20.283Z,20.37
2018-01-26T19:11:46.674Z,23.20
2018-01-26T19:14:12.957Z,20.63
2018-01-26T19:16:39.275Z,32.60
2018-01-26T19:19:05.616Z,77.07
2018-01-26T19:21:31.875Z,83.93
2018-01-26T19:23:58.191Z,73.33
2018-01-26T19:26:24.467Z,44.80
2018-01-26T19:28:50.746Z,53.33
2018-01-26T19:31:17.166Z,43.93
2018-01-26T19:33:43.441Z,36.93
2018-01-26T19:36:09.767Z,28.10
2018-01-26T19:38:36.067Z,27.90
2018-01-26T19:41:02.378Z,26.10
2018-01-26T19:43:28.678Z,23.97
2018-01-26T19:45:54.982Z,26.17
2018-01-26T19:48:21.285Z,28.30
2018-01-26T19:50:47.561Z,27.07
2018-01-26T19:53:14.828Z,24.73
2018-01-26T19:55:41.086Z,20.97
2018-01-26T19:58:07.440Z,18.50
2018-01-26T20:00:35.066Z,20.63
2018-01-26T20:03:13.882Z,22.67
2018-01-26T20:05:49.670Z,19.53
2018-01-26T20:08:28.487Z,19.63
2018-01-26T20:10:54.931Z,71.33
2018-01-26T20:13:27.303Z,99.53
2018-01-26T20:15:53.990Z,58.50
2018-01-26T20:18:20.697Z,46.97
2018-01-26T20:20:47.028Z,46.37
2018-01-26T20:23:13.307Z,35.20
2018-01-26T20:25:40.058Z,33.53
2018-01-26T20:28:06.777Z,32.37
2018-01-26T20:30:33.048Z,33.97
2018-01-26T20:32:59.331Z,26.50
2018-01-26T20:35:25.612Z,26.73
2018-01-26T20:37:51.927Z,30.73
2018-01-26T20:40:18.624Z,26.37
2018-01-26T20:42:44.878Z,11.93
2018-01-26T20:45:11.949Z,13.57
2018-01-26T20:47:38.250Z,13.87
2018-01-26T20:50:04.617Z,12.00
2018-01-26T20:52:31.645Z,11.20
2018-01-26T20:54:58.734Z,9.87
2018-01-26T20:57:25.047Z,8.87
2018-01-26T20:59:51.331Z,15.80
2018-01-26T21:02:17.634Z,10.23
2018-01-26T21:04:44.625Z,19.70
2018-01-26T21:07:11.446Z,13.20
2018-01-26T21:09:37.885Z,16.37
2018-01-26T21:12:04.162Z,19.30
2018-01-26T21:14:30.514Z,20.70
2018-01-26T21:16:56.779Z,19.33
2018-01-26T21:19:23.114Z,15.70
2018-01-26T21:21:49.919Z,16.07
2018-01-26T21:24:16.207Z,16.67
2018-01-26T21:26:43.503Z,16.37
2018-01-26T21:29:10.019Z,17.50
2018-01-26T21:31:36.385Z,20.53
2018-01-26T21:34:03.845Z,22.03
2018-01-26T21:36:30.229Z,18.50
2018-01-26T21:38:56.772Z,20.17
2018-01-26T21:41:23.217Z,20.27
2018-01-26T21:43:49.631Z,21.33
2018-01-26T21:46:15.946Z,19.37
2018-01-26T21:51:15.518Z,23.83
2018-01-26T21:53:41.794Z,23.90
2018-01-26T21:56:08.071Z,24.60
2018-01-26T21:58:34.379Z,17.53
2018-01-26T22:01:01.561Z,15.97
2018-01-26T22:03:27.982Z,20.13
2018-01-26T22:05:54.293Z,20.17
2018-01-26T22:08:20.555Z,17.90
2018-01-26T22:10:49.059Z,15.03
2018-01-26T22:13:16.370Z,14.63
2018-01-26T22:15:43.562Z,17.40
2018-01-26T22:18:09.851Z,15.03
2018-01-26T22:20:36.110Z,18.30
2018-01-26T22:23:04.278Z,19.83
2018-01-26T22:25:32.429Z,12.33
2018-01-26T22:27:59.460Z,17.37
2018-01-26T22:30:26.528Z,16.40
2018-01-26T22:32:52.873Z,20.03
2018-01-26T22:35:21.130Z,18.53
2018-01-26T22:37:57.728Z,15.27
2018-01-26T22:40:26.420Z,15.70
2018-01-26T22:42:53.246Z,17.37
2018-01-26T22:45:20.401Z,13.93
2018-01-26T22:47:58.359Z,11.73
2018-01-26T22:50:29.630Z,19.60
2018-01-26T22:55:43.649Z,20.93
2018-01-26T23:01:06.561Z,13.47
2018-01-26T23:03:33.598Z,19.73
2018-01-26T23:06:00.623Z,14.30
2018-01-26T23:08:27.785Z,25.33
2018-01-26T23:10:54.150Z,18.73
2018-01-26T23:13:20.410Z,18.80
2018-01-26T23:15:46.905Z,17.73
2018-01-26T23:18:13.939Z,16.57
2018-01-26T23:20:41.100Z,19.13
2018-01-26T23:23:07.410Z,17.23
2018-01-26T23:25:34.455Z,20.63
2018-01-26T23:28:00.920Z,19.27
2018-01-26T23:30:27.640Z,16.17
2018-01-26T23:32:54.243Z,18.70
2018-01-26T23:35:20.563Z,19.63
2018-01-26T23:37:46.833Z,20.73
2018-01-26T23:40:13.887Z,16.60
2018-01-26T23:42:40.173Z,15.17
2018-01-26T23:45:06.444Z,21.37
2018-01-26T23:47:32.758Z,14.50
2018-01-26T23:49:59.022Z,19.43
2018-01-26T23:52:26.080Z,26.50
2018-01-26T23:54:52.362Z,23.37
2018-01-26T23:57:19.410Z,22.17
2018-01-26T23:59:46.431Z,22.63
